Platzwetter Flugplatz Wels

Flugwetter Linz LOWL

[Quelle: ADDS]
METAR
LOWL 231020Z 25012KT 9999 FEW012 BKN024 04/01 Q1000 NOSIG =
LOWL 230515Z 2306/2406 27015KT 9999 FEW012 BKN040 TX04/2312Z TNM01/2405Z PROB40 TEMPO 2306/2309 RA BKN012 BECMG 2313/2316 27005KT TEMPO 2320/2406 VRB01KT 1200 -SN BCFG SCT001 PROB40 2322/2406 0300 FZFG VV001
TAF
LOWL 230515Z 2306/2406 27015KT 9999 FEW012 BKN040 TX04/2312Z TNM01/2405Z PROB40 TEMPO 2306/2309 RA BKN012 BECMG 2313/2316 27005KT TEMPO 2320/2406 VRB01KT 1200 -SN BCFG SCT001 PROB40 2322/2406 0300 FZFG VV001 =

Flugwetter Salzburg LOWS

[Quelle: ADDS]
METAR
LOWS 231020Z 29008KT 9999 -RASN FEW018 SCT035 BKN050 03/M01 Q1001 NOSIG =
LOWS 230515Z 2306/2406 30007KT 9999 -RA SCT020 BKN050 TX04/2310Z TNM01/2406Z TEMPO 2306/2309 29015G30KT 4500 SHRA SCT012 BKN020 PROB30 TEMPO 2306/2308 2500 SHRASN FEW006 BKN012 BECMG 2309/2311 NSW SCT050 BKN100 BECMG 2316/2318 15006KT TEMPO 2404/2406 29007KT -SHSN BKN025
TAF
LOWS 230515Z 2306/2406 30007KT 9999 -RA SCT020 BKN050 TX04/2310Z TNM01/2406Z TEMPO 2306/2309 29015G30KT 4500 SHRA SCT012 BKN020 PROB30 TEMPO 2306/2308 2500 SHRASN FEW006 BKN012 BECMG 2309/2311 NSW SCT050 BKN100 BECMG 2316/2318 15006KT TEMPO 2404/2406 29007KT -SHSN BKN025 =

Wind - Verlauf

Windrichtung - Verlauf

Temperatur - Verlauf

Relative Luftfeuchtigkeit - Verlauf

Luftdruck - Verlauf

Cookies erleichtern die Bereitstellung unserer Dienste. Mit der Nutzung unserer Dienste erklären Sie sich damit einverstanden, dass wir Cookies verwenden.
Weitere Informationen Ok